createdAt,value
2018-11-21T00:01:42.218Z,9.51
2018-11-21T00:04:12.344Z,9.21
2018-11-21T00:06:41.596Z,9.24
2018-11-21T00:09:11.085Z,9.37
2018-11-21T00:11:40.352Z,9.31
2018-11-21T00:14:10.087Z,9.49
2018-11-21T00:16:39.420Z,9.30
2018-11-21T00:19:09.359Z,9.52
2018-11-21T00:21:38.598Z,9.69
2018-11-21T00:24:07.884Z,9.50
2018-11-21T00:26:37.714Z,9.29
2018-11-21T00:29:08.862Z,9.21
2018-11-21T00:31:38.153Z,9.19
2018-11-21T00:34:07.404Z,9.45
2018-11-21T00:36:36.667Z,9.51
2018-11-21T00:39:08.279Z,9.65
2018-11-21T00:41:38.579Z,9.05
2018-11-21T00:44:08.270Z,8.97
2018-11-21T00:46:37.643Z,9.27
2018-11-21T00:49:06.870Z,9.25
2018-11-21T00:51:36.123Z,9.35
2018-11-21T00:54:06.188Z,9.17
2018-11-21T00:56:36.826Z,9.20
2018-11-21T00:59:06.098Z,8.94
2018-11-21T01:01:35.456Z,9.35
2018-11-21T01:04:04.805Z,9.34
2018-11-21T01:06:34.927Z,9.19
2018-11-21T01:09:04.778Z,9.31
2018-11-21T01:11:34.021Z,9.02
2018-11-21T01:14:03.266Z,9.22
2018-11-21T01:16:32.619Z,9.05
2018-11-21T01:19:02.476Z,9.18
2018-11-21T01:21:32.740Z,8.93
2018-11-21T01:24:02.004Z,8.81
2018-11-21T01:26:31.267Z,9.13
2018-11-21T01:29:00.505Z,9.16
2018-11-21T01:31:30.849Z,8.85
2018-11-21T01:34:00.526Z,8.95
2018-11-21T01:36:29.844Z,9.03
2018-11-21T01:38:59.213Z,8.54
2018-11-21T01:41:28.462Z,8.74
2018-11-21T01:43:58.777Z,9.05
2018-11-21T01:46:28.162Z,8.81
2018-11-21T01:48:57.874Z,8.85
2018-11-21T01:51:27.148Z,9.09
2018-11-21T01:53:56.449Z,9.02
2018-11-21T01:56:26.314Z,8.93
2018-11-21T01:58:55.813Z,8.97
2018-11-21T02:01:25.078Z,9.14
2018-11-21T02:03:54.814Z,9.24
2018-11-21T02:06:24.065Z,9.30
2018-11-21T02:08:53.763Z,9.40
2018-11-21T02:11:23.467Z,9.26
2018-11-21T02:13:54.462Z,9.02
2018-11-21T02:16:23.804Z,8.64
2018-11-21T02:18:52.976Z,8.93
2018-11-21T02:21:22.225Z,8.91
2018-11-21T02:23:51.870Z,9.14
2018-11-21T02:26:21.553Z,9.31
2018-11-21T02:28:51.292Z,8.75
2018-11-21T02:31:20.550Z,9.22
2018-11-21T02:33:49.816Z,9.40
2018-11-21T02:36:19.167Z,9.30
2018-11-21T02:38:48.519Z,9.24
2018-11-21T02:41:18.334Z,8.87
2018-11-21T02:43:48.098Z,9.09
2018-11-21T02:46:18.697Z,9.14
2018-11-21T02:48:47.954Z,9.21
2018-11-21T02:51:17.186Z,9.11
2018-11-21T02:53:46.564Z,9.04
2018-11-21T02:56:17.849Z,8.89
2018-11-21T02:58:47.119Z,8.35
2018-11-21T03:01:16.853Z,8.68
2018-11-21T03:03:46.126Z,8.83
2018-11-21T03:06:16.759Z,8.88
2018-11-21T03:08:46.887Z,9.14
2018-11-21T03:11:16.160Z,9.06
2018-11-21T03:13:45.540Z,8.74
2018-11-21T03:16:14.787Z,8.89
2018-11-21T03:18:44.060Z,8.30
2018-11-21T03:21:16.025Z,8.78
2018-11-21T03:23:45.704Z,8.93
2018-11-21T03:26:14.956Z,9.00
2018-11-21T03:28:44.209Z,8.84
2018-11-21T03:31:13.970Z,8.91
2018-11-21T03:33:43.762Z,8.62
2018-11-21T03:36:13.065Z,9.01
2018-11-21T03:38:43.568Z,8.91
2018-11-21T03:41:12.789Z,8.93
2018-11-21T03:43:42.633Z,9.04
2018-11-21T03:46:12.470Z,9.20
2018-11-21T03:48:42.097Z,8.93
2018-11-21T03:51:11.397Z,9.01
2018-11-21T03:53:40.649Z,8.79
2018-11-21T03:56:12.936Z,9.01
2018-11-21T03:58:42.806Z,8.91
2018-11-21T04:01:11.970Z,8.53
2018-11-21T04:03:41.290Z,8.97
2018-11-21T04:06:10.794Z,8.93
2018-11-21T04:08:42.593Z,9.10
2018-11-21T04:11:09.362Z,9.19
2018-11-21T04:13:39.067Z,8.88
2018-11-21T04:16:08.315Z,9.33
2018-11-21T04:18:37.651Z,8.82
2018-11-21T04:21:07.736Z,9.32
2018-11-21T04:23:38.843Z,9.20
2018-11-21T04:26:08.135Z,9.21
2018-11-21T04:28:37.379Z,9.02
2018-11-21T04:31:06.636Z,9.26
2018-11-21T04:33:37.223Z,8.64
2018-11-21T04:36:07.606Z,8.81
2018-11-21T04:38:37.386Z,9.05
2018-11-21T04:41:06.662Z,9.06
2018-11-21T04:43:36.264Z,8.73
2018-11-21T04:46:06.751Z,8.95
2018-11-21T04:48:36.549Z,8.53
2018-11-21T04:51:06.280Z,8.44
2018-11-21T04:53:35.968Z,8.70
2018-11-21T04:56:05.534Z,8.93
2018-11-21T04:58:34.775Z,8.58
2018-11-21T05:01:04.023Z,8.88
2018-11-21T05:03:34.350Z,9.14
2018-11-21T05:06:04.034Z,9.12
2018-11-21T05:08:33.313Z,9.13
2018-11-21T05:11:03.780Z,9.24
2018-11-21T05:13:33.486Z,9.32
2018-11-21T05:16:03.231Z,9.21
2018-11-21T05:18:32.570Z,9.09
2018-11-21T05:21:01.879Z,9.13
2018-11-21T05:23:31.135Z,8.86
2018-11-21T05:26:02.012Z,9.32
2018-11-21T05:28:31.688Z,9.53
2018-11-21T05:31:00.949Z,9.68
2018-11-21T05:33:30.287Z,9.67
2018-11-21T05:35:59.533Z,9.82
2018-11-21T05:38:29.289Z,9.79
2018-11-21T05:40:59.322Z,9.80
2018-11-21T05:43:28.578Z,9.85
2018-11-21T05:45:57.822Z,9.83
2018-11-21T05:48:27.601Z,9.98
2018-11-21T05:50:57.796Z,9.86
2018-11-21T05:53:27.576Z,9.35
2018-11-21T05:55:56.856Z,9.69
2018-11-21T05:58:26.552Z,9.88
2018-11-21T06:00:55.790Z,9.95
2018-11-21T06:03:25.589Z,9.97
2018-11-21T06:05:55.270Z,10.05
2018-11-21T06:08:24.512Z,10.09
2018-11-21T06:10:54.289Z,10.05
2018-11-21T06:13:23.583Z,9.98
2018-11-21T06:15:53.848Z,9.93
2018-11-21T06:18:24.095Z,9.96
2018-11-21T06:20:53.823Z,9.95
2018-11-21T06:23:23.068Z,9.92
2018-11-21T06:25:52.424Z,9.87
2018-11-21T06:28:22.246Z,9.95
2018-11-21T06:30:51.951Z,9.94
2018-11-21T06:33:21.222Z,10.04
2018-11-21T06:35:50.473Z,10.04
2018-11-21T06:38:19.721Z,9.94
2018-11-21T06:40:50.310Z,9.91
2018-11-21T06:43:20.133Z,9.95
2018-11-21T06:45:50.454Z,9.96
2018-11-21T06:48:19.727Z,9.97
2018-11-21T06:50:48.992Z,9.91
2018-11-21T06:53:18.557Z,9.87
2018-11-21T06:55:47.823Z,9.80
2018-11-21T06:58:17.511Z,9.76
2018-11-21T07:00:47.360Z,9.69
2018-11-21T07:03:16.691Z,9.79
2018-11-21T07:05:45.928Z,9.67
2018-11-21T07:08:15.199Z,9.68
2018-11-21T07:10:45.617Z,9.65
2018-11-21T07:13:15.279Z,9.48
2018-11-21T07:15:44.508Z,9.58
2018-11-21T07:18:15.551Z,9.37
2018-11-21T07:20:43.771Z,9.29
2018-11-21T07:23:13.774Z,9.57
2018-11-21T07:25:43.069Z,9.57
2018-11-21T07:28:13.276Z,9.55
2018-11-21T07:30:42.058Z,9.56
2018-11-21T07:33:11.335Z,9.44
2018-11-21T07:35:42.264Z,9.59
2018-11-21T07:38:11.524Z,9.56
2018-11-21T07:40:40.769Z,9.27
2018-11-21T07:43:10.491Z,9.35
2018-11-21T07:45:39.745Z,9.16
2018-11-21T07:48:09.557Z,9.31
2018-11-21T07:50:39.528Z,9.37
2018-11-21T07:53:08.817Z,9.36
2018-11-21T07:55:39.323Z,9.60
2018-11-21T07:58:10.982Z,9.50
2018-11-21T08:01:11.961Z,9.54
2018-11-21T08:04:00.228Z,9.50
2018-11-21T08:06:48.087Z,9.33
2018-11-21T08:09:44.945Z,9.48
2018-11-21T08:12:43.731Z,9.21
2018-11-21T08:15:50.956Z,9.36
2018-11-21T08:18:37.745Z,9.37
2018-11-21T08:21:41.159Z,9.04
2018-11-21T08:24:32.659Z,9.29
2018-11-21T08:27:30.775Z,9.35
2018-11-21T08:30:01.403Z,9.46
2018-11-21T08:32:30.618Z,9.62
2018-11-21T08:35:01.961Z,9.62
2018-11-21T08:37:31.623Z,9.48
2018-11-21T08:40:00.852Z,9.50
2018-11-21T08:42:30.131Z,9.50
2018-11-21T08:44:59.973Z,9.51
2018-11-21T08:47:29.718Z,9.60
2018-11-21T08:49:59.511Z,9.66
2018-11-21T08:52:28.751Z,9.59
2018-11-21T08:54:58.019Z,9.28
2018-11-21T08:57:29.058Z,9.49
2018-11-21T08:59:58.767Z,9.58
2018-11-21T09:02:28.020Z,9.60
2018-11-21T09:04:57.338Z,9.65
2018-11-21T09:07:26.602Z,9.75
2018-11-21T09:09:56.830Z,9.88
2018-11-21T09:12:26.163Z,10.11
2018-11-21T09:14:55.851Z,10.24
2018-11-21T09:17:25.214Z,10.20
2018-11-21T09:19:54.580Z,10.01
2018-11-21T09:22:24.375Z,10.17
2018-11-21T09:24:54.659Z,10.52
2018-11-21T09:27:23.867Z,10.31
2018-11-21T09:29:53.212Z,10.34
2018-11-21T09:32:22.437Z,10.25
2018-11-21T09:34:51.727Z,10.30
2018-11-21T09:37:21.434Z,10.50
2018-11-21T09:39:51.451Z,10.57
2018-11-21T09:42:21.616Z,10.52
2018-11-21T09:44:50.810Z,10.46
2018-11-21T09:47:20.047Z,10.42
2018-11-21T09:49:49.325Z,10.64
2018-11-21T09:52:19.861Z,10.74
2018-11-21T09:54:49.103Z,10.56
2018-11-21T09:57:18.793Z,10.96
2018-11-21T09:59:48.053Z,11.09
2018-11-21T10:03:00.365Z,10.39
2018-11-21T10:05:29.623Z,10.93
2018-11-21T10:08:20.993Z,10.97
2018-11-21T10:10:50.246Z,10.61
2018-11-21T10:13:19.853Z,10.84
2018-11-21T10:15:49.077Z,10.94
2018-11-21T10:18:18.335Z,10.90
2018-11-21T10:20:47.578Z,11.12
2018-11-21T10:23:18.202Z,10.93
2018-11-21T10:25:48.695Z,10.92
2018-11-21T10:28:18.578Z,10.25
2018-11-21T10:30:47.890Z,10.82
2018-11-21T10:33:17.177Z,10.89
2018-11-21T10:35:46.433Z,10.65
2018-11-21T10:38:16.232Z,10.90
2018-11-21T10:40:45.995Z,10.86
2018-11-21T10:43:15.259Z,10.99
2018-11-21T10:45:44.511Z,11.12
2018-11-21T10:48:13.862Z,11.05
2018-11-21T10:50:43.967Z,10.71
2018-11-21T10:53:13.339Z,10.87
2018-11-21T10:55:43.029Z,10.74
2018-11-21T10:58:12.289Z,9.88
2018-11-21T11:00:59.160Z,10.30
2018-11-21T11:03:30.983Z,10.57
2018-11-21T11:06:23.063Z,10.64
2018-11-21T11:09:20.605Z,10.58
2018-11-21T11:12:07.798Z,10.09
2018-11-21T11:15:05.289Z,10.63
2018-11-21T11:17:52.996Z,10.49
2018-11-21T11:20:50.564Z,10.46
2018-11-21T11:23:56.362Z,10.65
2018-11-21T11:26:47.856Z,10.44
2018-11-21T11:29:44.513Z,10.63
2018-11-21T11:32:31.536Z,10.20
2018-11-21T11:35:25.642Z,9.92
2018-11-21T11:38:26.537Z,10.58
2018-11-21T11:41:33.336Z,10.49
2018-11-21T11:44:30.932Z,10.44
2018-11-21T11:47:31.418Z,10.76
2018-11-21T11:50:18.897Z,11.18
2018-11-21T11:53:21.158Z,10.90
2018-11-21T11:56:14.283Z,10.18
2018-11-21T11:59:01.300Z,9.88
2018-11-21T12:01:46.472Z,10.82
2018-11-21T12:04:24.909Z,10.39
2018-11-21T12:07:16.244Z,10.92
2018-11-21T12:10:03.121Z,10.65
2018-11-21T12:12:50.897Z,10.57
2018-11-21T12:15:43.524Z,10.41
2018-11-21T12:18:34.560Z,10.52
2018-11-21T12:21:38.978Z,10.74
2018-11-21T12:24:27.570Z,11.02
2018-11-21T12:27:08.694Z,10.80
2018-11-21T12:29:52.210Z,10.69
2018-11-21T12:32:39.409Z,10.32
2018-11-21T12:35:27.292Z,10.29
2018-11-21T12:38:23.015Z,10.92
2018-11-21T12:41:20.351Z,10.36
2018-11-21T12:44:14.455Z,10.69
2018-11-21T12:47:06.007Z,10.60
2018-11-21T12:49:53.902Z,10.51
2018-11-21T12:52:54.349Z,10.29
2018-11-21T12:56:00.636Z,10.66
2018-11-21T12:58:48.376Z,10.85
2018-11-21T13:01:31.611Z,10.52
2018-11-21T13:04:28.943Z,10.37
2018-11-21T13:07:20.179Z,10.73
2018-11-21T13:10:21.078Z,11.05
2018-11-21T13:13:08.229Z,11.38
2018-11-21T13:15:55.468Z,11.37
2018-11-21T13:18:37.343Z,11.25
2018-11-21T13:21:26.058Z,11.42
2018-11-21T13:24:19.523Z,11.36
2018-11-21T13:27:16.649Z,11.42
2018-11-21T13:30:04.543Z,11.08
2018-11-21T13:33:02.638Z,11.19
2018-11-21T13:35:57.657Z,10.72
2018-11-21T13:38:45.915Z,10.66
2018-11-21T13:41:34.217Z,10.71
2018-11-21T13:44:26.086Z,10.81
2018-11-21T13:47:12.256Z,10.92
2018-11-21T13:50:03.296Z,10.63
2018-11-21T13:53:09.838Z,10.58
2018-11-21T13:55:40.056Z,9.98
2018-11-21T13:58:09.839Z,10.70
2018-11-21T14:00:39.192Z,10.95
2018-11-21T14:03:08.443Z,10.98
2018-11-21T14:05:37.712Z,10.44
2018-11-21T14:08:09.337Z,10.48
2018-11-21T14:10:39.144Z,10.62
2018-11-21T14:13:08.417Z,10.75
2018-11-21T14:15:37.769Z,10.79
2018-11-21T14:18:07.569Z,10.56
2018-11-21T14:20:37.412Z,10.34
2018-11-21T14:23:07.406Z,10.50
2018-11-21T14:25:36.637Z,10.33
2018-11-21T14:28:06.151Z,10.38
2018-11-21T14:30:36.448Z,10.02
2018-11-21T14:33:06.721Z,10.36
2018-11-21T14:35:35.992Z,10.32
2018-11-21T14:38:05.328Z,10.65
2018-11-21T14:40:34.578Z,10.85
2018-11-21T14:43:04.312Z,10.55
2018-11-21T14:45:33.626Z,10.53
2018-11-21T14:48:03.316Z,10.63
2018-11-21T14:50:39.047Z,10.61
2018-11-21T14:53:04.276Z,10.37
2018-11-21T14:55:33.954Z,10.72
2018-11-21T14:58:04.824Z,10.52
2018-11-21T15:00:34.609Z,10.43
2018-11-21T15:03:03.943Z,10.44
2018-11-21T15:05:33.197Z,10.51
2018-11-21T15:08:03.058Z,10.32
2018-11-21T15:10:32.997Z,10.25
2018-11-21T15:13:02.259Z,10.08
2018-11-21T15:15:31.568Z,10.14
2018-11-21T15:18:00.811Z,10.13
2018-11-21T15:20:30.530Z,9.77
2018-11-21T15:23:02.109Z,10.30
2018-11-21T15:25:31.856Z,10.19
2018-11-21T15:28:01.205Z,10.06
2018-11-21T15:30:31.385Z,10.46
2018-11-21T15:33:00.654Z,10.24
2018-11-21T15:35:30.361Z,10.09
2018-11-21T15:37:59.664Z,10.08
2018-11-21T15:40:29.423Z,10.26
2018-11-21T15:42:58.680Z,9.81
2018-11-21T15:45:28.227Z,9.99
2018-11-21T15:47:59.669Z,9.39
2018-11-21T15:50:30.645Z,9.66
2018-11-21T15:52:59.916Z,9.91
2018-11-21T15:55:29.186Z,9.91
2018-11-21T15:57:59.542Z,9.65
2018-11-21T16:00:31.404Z,10.14
2018-11-21T16:03:04.948Z,10.00
2018-11-21T16:05:34.221Z,10.11
2018-11-21T16:08:03.654Z,10.31
2018-11-21T16:10:36.702Z,10.21
2018-11-21T16:13:06.538Z,10.19
2018-11-21T16:15:47.324Z,10.13
2018-11-21T16:18:17.509Z,9.83
2018-11-21T16:20:47.792Z,9.90
2018-11-21T16:23:17.024Z,9.79
2018-11-21T16:25:46.304Z,9.90
2018-11-21T16:28:15.556Z,9.94
2018-11-21T16:30:44.901Z,9.65
2018-11-21T16:33:14.538Z,9.87
2018-11-21T16:35:45.508Z,9.73
2018-11-21T16:38:14.877Z,9.58
2018-11-21T16:40:44.187Z,9.71
2018-11-21T16:43:13.466Z,9.54
2018-11-21T16:45:48.598Z,9.19
2018-11-21T16:48:18.330Z,8.76
2018-11-21T16:50:47.591Z,9.24
2018-11-21T16:53:16.885Z,9.05
2018-11-21T16:55:47.515Z,9.24
2018-11-21T16:58:17.197Z,9.14
2018-11-21T17:00:46.581Z,9.28
2018-11-21T17:03:16.317Z,9.14
2018-11-21T17:05:45.580Z,9.33
2018-11-21T17:08:15.803Z,9.39
2018-11-21T17:10:45.097Z,9.33
2018-11-21T17:13:15.519Z,8.89
2018-11-21T17:15:45.208Z,9.15
2018-11-21T17:18:15.045Z,8.87
2018-11-21T17:20:46.291Z,8.96
2018-11-21T17:23:15.596Z,9.05
2018-11-21T17:25:44.901Z,8.66
2018-11-21T17:28:14.306Z,8.51
2018-11-21T17:30:44.061Z,8.34
2018-11-21T17:33:14.734Z,8.53
2018-11-21T17:35:44.121Z,8.57
2018-11-21T17:38:13.399Z,7.96
2018-11-21T17:40:43.823Z,8.42
2018-11-21T17:43:13.624Z,8.03
2018-11-21T17:45:43.950Z,7.95
2018-11-21T17:48:13.202Z,7.91
2018-11-21T17:50:42.574Z,8.48
2018-11-21T17:53:11.926Z,8.22
2018-11-21T17:55:41.213Z,7.89
2018-11-21T17:58:11.003Z,8.21
2018-11-21T18:00:41.657Z,8.33
2018-11-21T18:03:10.976Z,8.53
2018-11-21T18:05:41.564Z,8.55
2018-11-21T18:08:10.828Z,8.59
2018-11-21T18:10:41.406Z,8.87
2018-11-21T18:13:11.208Z,8.34
2018-11-21T18:15:40.502Z,8.98
2018-11-21T18:18:10.317Z,8.62
2018-11-21T18:20:40.141Z,8.71
2018-11-21T18:23:10.317Z,8.82
2018-11-21T18:25:41.946Z,8.40
2018-11-21T18:28:11.302Z,8.66
2018-11-21T18:30:40.585Z,8.95
2018-11-21T18:33:09.961Z,9.17
2018-11-21T18:35:40.885Z,9.19
2018-11-21T18:38:12.139Z,9.31
2018-11-21T18:40:41.416Z,9.25
2018-11-21T18:43:10.676Z,9.05
2018-11-21T18:45:41.640Z,8.97
2018-11-21T18:48:12.099Z,9.07
2018-11-21T18:50:41.359Z,8.62
2018-11-21T18:53:11.743Z,8.79
2018-11-21T18:55:43.552Z,8.99
2018-11-21T18:58:43.868Z,9.23
2018-11-21T19:01:14.737Z,8.82
2018-11-21T19:03:44.422Z,8.67
2018-11-21T19:06:13.676Z,8.96
2018-11-21T19:08:43.033Z,9.08
2018-11-21T19:11:12.954Z,8.46
2018-11-21T19:13:43.283Z,8.28
2018-11-21T19:16:12.595Z,8.75
2018-11-21T19:18:43.314Z,8.09
2018-11-21T19:21:12.652Z,8.54
2018-11-21T19:23:41.949Z,8.87
2018-11-21T19:26:11.978Z,9.05
2018-11-21T19:28:41.771Z,9.25
2018-11-21T19:31:11.189Z,9.27
2018-11-21T19:33:40.569Z,9.04
2018-11-21T19:36:09.933Z,8.94
2018-11-21T19:38:40.994Z,9.26
2018-11-21T19:41:10.498Z,9.45
2018-11-21T19:43:40.259Z,9.45
2018-11-21T19:46:09.672Z,9.02
2018-11-21T19:48:40.374Z,9.28
2018-11-21T19:51:10.629Z,9.49
2018-11-21T19:53:40.435Z,9.30
2018-11-21T19:56:09.809Z,9.05
2018-11-21T19:58:39.226Z,9.40
2018-11-21T20:01:08.517Z,9.63
2018-11-21T20:03:37.842Z,9.77
2018-11-21T20:06:07.656Z,9.54
2018-11-21T20:08:38.433Z,9.48
2018-11-21T20:11:07.650Z,9.06
2018-11-21T20:13:37.054Z,9.40
2018-11-21T20:16:06.506Z,9.39
2018-11-21T20:18:36.587Z,9.78
2018-11-21T20:21:06.493Z,9.76
2018-11-21T20:23:35.836Z,9.68
2018-11-21T20:26:05.351Z,9.26
2018-11-21T20:28:34.647Z,9.40
2018-11-21T20:31:05.669Z,9.64
2018-11-21T20:33:35.072Z,9.54
2018-11-21T20:36:05.317Z,9.20
2018-11-21T20:38:34.827Z,9.57
2018-11-21T20:41:04.618Z,9.65
2018-11-21T20:43:33.937Z,9.34
2018-11-21T20:46:03.290Z,9.59
2018-11-21T20:48:33.110Z,9.82
2018-11-21T20:51:02.436Z,9.75
2018-11-21T20:53:33.526Z,9.58
2018-11-21T20:56:02.862Z,9.12
2018-11-21T20:58:32.145Z,9.54
2018-11-21T21:01:01.400Z,9.82
2018-11-21T21:03:30.827Z,9.96
2018-11-21T21:06:01.014Z,9.59
2018-11-21T21:08:30.810Z,9.41
2018-11-21T21:11:00.210Z,9.45
2018-11-21T21:13:29.540Z,9.48
2018-11-21T21:15:58.837Z,9.69
2018-11-21T21:18:29.654Z,10.02
2018-11-21T21:20:59.234Z,9.98
2018-11-21T21:23:28.510Z,9.88
2018-11-21T21:25:58.265Z,10.02
2018-11-21T21:28:27.614Z,9.83
2018-11-21T21:30:57.437Z,10.15
2018-11-21T21:33:26.592Z,9.80
2018-11-21T21:35:56.442Z,10.17
2018-11-21T21:38:25.696Z,9.56
2018-11-21T21:40:55.104Z,10.01
2018-11-21T21:43:25.289Z,10.13
2018-11-21T21:45:54.629Z,10.19
2018-11-21T21:48:23.944Z,9.63
2018-11-21T21:50:53.996Z,10.01
2018-11-21T21:53:23.235Z,10.21
2018-11-21T21:55:52.599Z,10.38
2018-11-21T21:58:22.311Z,10.45
2018-11-21T22:00:53.186Z,10.22
2018-11-21T22:03:23.446Z,10.50
2018-11-21T22:05:52.708Z,10.48
2018-11-21T22:08:22.237Z,10.51
2018-11-21T22:10:51.500Z,10.68
2018-11-21T22:13:21.440Z,10.76
2018-11-21T22:15:51.337Z,10.71
2018-11-21T22:18:20.620Z,10.23
2018-11-21T22:20:49.856Z,10.36
2018-11-21T22:23:19.104Z,10.45
2018-11-21T22:25:48.769Z,10.45
2018-11-21T22:28:18.450Z,10.68
2018-11-21T22:30:47.827Z,10.75
2018-11-21T22:33:17.189Z,10.68
2018-11-21T22:35:46.431Z,10.73
2018-11-21T22:38:16.270Z,10.75
2018-11-21T22:40:45.885Z,10.32
2018-11-21T22:43:15.155Z,10.23
2018-11-21T22:45:44.408Z,10.37
2018-11-21T22:48:13.761Z,9.94
2018-11-21T22:50:43.936Z,10.10
2018-11-21T22:53:13.609Z,9.80
2018-11-21T22:55:42.949Z,9.85
2018-11-21T22:58:12.203Z,10.05
2018-11-21T23:00:43.049Z,10.09
2018-11-21T23:03:13.979Z,9.75
2018-11-21T23:05:43.712Z,9.64
2018-11-21T23:08:12.915Z,10.20
2018-11-21T23:10:42.224Z,10.29
2018-11-21T23:13:11.493Z,10.64
2018-11-21T23:15:42.399Z,10.64
2018-11-21T23:18:11.731Z,10.47
2018-11-21T23:20:41.349Z,10.67
2018-11-21T23:23:10.590Z,10.98
2018-11-21T23:25:40.332Z,10.86
2018-11-21T23:28:10.149Z,11.00
2018-11-21T23:30:39.442Z,10.67
2018-11-21T23:33:08.817Z,10.98
2018-11-21T23:35:39.124Z,11.16
